createdAt,value
2023-03-26T00:01:15.772Z,75.02
2023-03-26T00:06:27.707Z,74.95
2023-03-26T00:11:48.188Z,75.21
2023-03-26T00:17:16.045Z,75.54
2023-03-26T00:22:29.806Z,74.94
2023-03-26T00:27:45.633Z,74.44
2023-03-26T00:33:13.821Z,74.31
2023-03-26T00:38:41.761Z,74.51
2023-03-26T00:43:51.520Z,74.45
2023-03-26T00:48:59.852Z,74.04
2023-03-26T00:54:14.223Z,74.25
2023-03-26T00:59:24.590Z,73.59
2023-03-26T01:04:37.743Z,72.75
2023-03-26T01:09:52.802Z,72.40
2023-03-26T01:15:02.666Z,71.80
2023-03-26T01:20:18.130Z,71.50
2023-03-26T01:25:34.753Z,71.86
2023-03-26T01:30:45.011Z,71.46
2023-03-26T01:36:03.091Z,70.99
2023-03-26T01:41:44.896Z,70.74
2023-03-26T01:46:51.763Z,70.72
2023-03-26T01:52:03.644Z,70.87
2023-03-26T01:57:41.139Z,71.48
2023-03-26T02:03:36.572Z,71.57
2023-03-26T02:09:00.862Z,71.62
2023-03-26T02:14:37.533Z,71.86
2023-03-26T02:20:13.154Z,72.15
2023-03-26T02:25:24.605Z,71.53
2023-03-26T02:30:34.450Z,71.52
2023-03-26T02:35:55.033Z,71.98
2023-03-26T02:41:11.269Z,71.91
2023-03-26T02:46:43.702Z,71.49
2023-03-26T02:52:10.184Z,71.21
2023-03-26T02:57:23.444Z,71.14
2023-03-26T03:02:49.729Z,71.05
2023-03-26T03:08:20.910Z,71.68
2023-03-26T03:14:00.104Z,71.81
2023-03-26T03:24:46.322Z,72.29
2023-03-26T03:29:50.016Z,72.84
2023-03-26T03:35:24.085Z,72.95
2023-03-26T03:40:32.390Z,73.93
2023-03-26T03:45:36.348Z,74.35
2023-03-26T03:51:19.720Z,76.74
2023-03-26T03:56:26.358Z,81.38
2023-03-26T04:01:52.940Z,83.21
2023-03-26T04:07:17.999Z,84.56
2023-03-26T04:12:44.266Z,85.12
2023-03-26T04:17:52.479Z,85.46
2023-03-26T04:22:58.552Z,86.05
2023-03-26T04:28:08.703Z,86.43
2023-03-26T04:33:25.097Z,87.08
2023-03-26T04:38:35.713Z,87.10
2023-03-26T04:43:47.559Z,87.50
2023-03-26T04:49:09.465Z,87.97
2023-03-26T04:54:15.636Z,88.11
2023-03-26T04:59:35.093Z,88.06
2023-03-26T05:04:43.985Z,88.04
2023-03-26T05:09:49.874Z,88.19
2023-03-26T05:14:59.073Z,88.00
2023-03-26T05:20:34.801Z,88.11
2023-03-26T05:25:42.435Z,88.05
2023-03-26T05:30:54.436Z,87.82
2023-03-26T05:36:04.218Z,87.70
2023-03-26T05:41:11.660Z,87.41
2023-03-26T05:46:20.465Z,87.77
2023-03-26T05:51:24.920Z,87.33
2023-03-26T05:56:48.774Z,87.21
2023-03-26T06:02:11.322Z,87.32
2023-03-26T06:07:16.859Z,87.01
2023-03-26T06:12:27.592Z,86.49
2023-03-26T06:17:31.175Z,85.70
2023-03-26T06:22:41.683Z,85.17
2023-03-26T06:28:18.698Z,83.25
2023-03-26T06:33:40.794Z,82.65
2023-03-26T06:38:45.829Z,81.67
2023-03-26T06:43:50.879Z,81.82
2023-03-26T06:49:30.057Z,81.39
2023-03-26T06:54:56.200Z,81.83
2023-03-26T07:00:20.424Z,80.67
2023-03-26T07:05:44.459Z,80.66
2023-03-26T07:11:07.170Z,80.33
2023-03-26T07:16:49.953Z,79.69
2023-03-26T07:22:20.428Z,79.81
2023-03-26T07:28:04.294Z,78.51
2023-03-26T07:33:30.634Z,78.72
2023-03-26T07:39:11.351Z,78.58
2023-03-26T07:44:47.408Z,78.40
2023-03-26T07:50:26.446Z,77.82
2023-03-26T07:55:40.326Z,77.21
2023-03-26T08:01:20.605Z,76.62
2023-03-26T08:06:32.988Z,75.77
2023-03-26T08:11:55.703Z,76.00
2023-03-26T08:17:05.188Z,76.63
2023-03-26T08:22:15.557Z,77.54
2023-03-26T08:27:25.408Z,77.56
2023-03-26T08:32:29.223Z,77.49
2023-03-26T08:37:34.156Z,79.00
2023-03-26T08:43:02.586Z,79.66
2023-03-26T08:48:49.880Z,78.86
2023-03-26T08:54:21.335Z,76.91
2023-03-26T09:00:11.269Z,75.46
2023-03-26T09:05:47.192Z,74.15
2023-03-26T09:11:29.156Z,74.33
2023-03-26T09:17:03.863Z,75.28
2023-03-26T09:22:55.100Z,75.41
2023-03-26T09:28:22.570Z,76.07
2023-03-26T09:33:52.250Z,76.10
2023-03-26T09:39:05.417Z,77.43
2023-03-26T09:44:36.752Z,78.06
2023-03-26T09:49:52.905Z,79.14
2023-03-26T09:55:15.602Z,79.41
2023-03-26T10:00:30.395Z,79.76
2023-03-26T10:05:49.895Z,80.10
2023-03-26T10:10:59.516Z,80.20
2023-03-26T10:16:16.248Z,78.20
2023-03-26T10:21:30.805Z,81.01
2023-03-26T10:27:10.025Z,81.63
2023-03-26T10:32:24.274Z,80.47
2023-03-26T10:37:39.969Z,76.11
2023-03-26T10:42:56.917Z,73.94
2023-03-26T10:48:23.081Z,72.25
2023-03-26T10:53:36.070Z,71.33
2023-03-26T10:58:48.562Z,68.08
2023-03-26T11:03:57.079Z,65.92
2023-03-26T11:09:12.375Z,66.89
2023-03-26T11:14:33.691Z,65.02
2023-03-26T11:19:45.538Z,64.67
2023-03-26T11:25:13.241Z,65.06
2023-03-26T11:30:31.042Z,65.29
2023-03-26T11:35:40.730Z,62.90
2023-03-26T11:40:51.135Z,64.97
2023-03-26T11:46:19.371Z,60.91
2023-03-26T11:51:31.499Z,62.09
2023-03-26T11:56:39.094Z,59.96
2023-03-26T12:01:50.454Z,59.95
2023-03-26T12:06:59.748Z,59.60
2023-03-26T12:12:06.118Z,61.50
2023-03-26T12:17:16.313Z,59.20
2023-03-26T12:22:36.299Z,59.86
2023-03-26T12:27:44.838Z,57.52
2023-03-26T12:32:53.327Z,59.54
2023-03-26T12:38:17.118Z,58.90
2023-03-26T12:44:48.827Z,59.16
2023-03-26T12:48:56.957Z,58.61
2023-03-26T12:54:29.019Z,60.50
2023-03-26T12:59:47.688Z,60.75
2023-03-26T13:05:09.700Z,59.02
2023-03-26T13:10:37.265Z,57.08
2023-03-26T13:15:49.111Z,55.32
2023-03-26T13:21:03.249Z,55.53
2023-03-26T13:26:22.264Z,54.56
2023-03-26T13:31:35.262Z,54.37
2023-03-26T13:36:48.814Z,55.83
2023-03-26T13:42:09.962Z,56.69
2023-03-26T13:47:18.279Z,54.15
2023-03-26T13:52:26.364Z,53.60
2023-03-26T13:57:35.818Z,53.73
2023-03-26T14:02:42.100Z,52.69
2023-03-26T14:07:52.497Z,52.41
2023-03-26T14:13:01.263Z,52.46
2023-03-26T14:18:14.651Z,52.19
2023-03-26T14:23:34.820Z,50.90
2023-03-26T14:29:09.702Z,51.13
2023-03-26T14:34:38.970Z,51.13
2023-03-26T14:40:15.134Z,52.10
2023-03-26T14:45:59.437Z,52.25
2023-03-26T14:51:24.643Z,51.51
2023-03-26T14:56:59.716Z,53.56
2023-03-26T15:02:47.711Z,51.61
2023-03-26T15:08:20.299Z,51.36
2023-03-26T15:13:51.072Z,51.19
2023-03-26T15:19:19.216Z,52.02
2023-03-26T15:25:03.057Z,51.93
2023-03-26T15:30:56.099Z,52.40
2023-03-26T15:36:26.541Z,53.06
2023-03-26T15:41:35.036Z,52.97
2023-03-26T15:47:00.304Z,53.89
2023-03-26T15:52:23.110Z,53.41
2023-03-26T15:57:33.553Z,54.80
2023-03-26T16:02:51.836Z,55.00
2023-03-26T16:08:15.403Z,56.38
2023-03-26T16:13:33.691Z,57.47
2023-03-26T16:18:42.386Z,59.52
2023-03-26T16:23:58.361Z,61.36
2023-03-26T16:29:22.454Z,60.87
2023-03-26T16:34:38.912Z,61.56
2023-03-26T16:39:46.921Z,60.81
2023-03-26T16:45:05.663Z,62.24
2023-03-26T16:50:25.083Z,63.90
2023-03-26T16:55:43.924Z,64.78
2023-03-26T17:01:06.936Z,64.60
2023-03-26T17:06:38.404Z,64.91
2023-03-26T17:11:59.350Z,65.72
2023-03-26T17:17:21.980Z,63.97
2023-03-26T17:22:40.733Z,63.00
2023-03-26T17:28:23.875Z,62.71
2023-03-26T17:33:34.917Z,62.64
2023-03-26T17:39:18.327Z,63.30
2023-03-26T17:44:47.743Z,63.28
2023-03-26T17:49:56.569Z,63.15
2023-03-26T17:55:28.520Z,64.18
2023-03-26T18:00:45.661Z,64.96
2023-03-26T18:05:55.859Z,66.23
2023-03-26T18:11:28.901Z,68.38
2023-03-26T18:16:41.343Z,71.28
2023-03-26T18:21:55.048Z,71.77
2023-03-26T18:27:06.682Z,72.39
2023-03-26T18:32:23.926Z,74.82
2023-03-26T18:37:32.167Z,76.71
2023-03-26T18:42:41.137Z,76.47
2023-03-26T18:48:03.409Z,77.30
2023-03-26T18:53:15.382Z,78.43
2023-03-26T18:58:28.076Z,78.66
2023-03-26T19:03:38.904Z,78.79
2023-03-26T19:08:45.197Z,79.65
2023-03-26T19:14:03.523Z,79.89
2023-03-26T19:19:09.793Z,80.42
2023-03-26T19:24:16.534Z,80.33
2023-03-26T19:29:26.477Z,80.82
2023-03-26T19:34:37.516Z,80.92
2023-03-26T19:39:44.517Z,81.46
2023-03-26T19:44:50.496Z,81.91
2023-03-26T19:49:59.374Z,82.20
2023-03-26T19:55:07.009Z,82.88
2023-03-26T20:00:15.223Z,83.73
2023-03-26T20:05:27.096Z,83.31
2023-03-26T20:10:31.678Z,83.96
2023-03-26T20:15:38.928Z,84.99
2023-03-26T20:20:46.190Z,84.58
2023-03-26T20:25:55.188Z,84.38
2023-03-26T20:31:00.389Z,84.08
2023-03-26T20:36:08.607Z,84.07
2023-03-26T20:41:16.424Z,84.71
2023-03-26T20:46:23.913Z,84.80
2023-03-26T20:51:38.273Z,84.86
2023-03-26T20:56:43.510Z,85.14
2023-03-26T21:01:49.133Z,84.26
2023-03-26T21:07:03.239Z,83.99
2023-03-26T21:12:24.230Z,83.34
2023-03-26T21:17:30.125Z,83.19
2023-03-26T21:22:41.301Z,82.81
2023-03-26T21:27:52.852Z,82.74
2023-03-26T21:32:58.181Z,82.89
2023-03-26T21:38:06.922Z,82.38
2023-03-26T21:43:14.925Z,81.70
2023-03-26T21:48:20.691Z,80.97
2023-03-26T21:53:29.042Z,79.85
2023-03-26T21:58:47.260Z,80.21
2023-03-26T22:04:07.147Z,80.19
2023-03-26T22:09:26.361Z,80.26
2023-03-26T22:14:39.999Z,81.06
2023-03-26T22:19:46.088Z,80.54
2023-03-26T22:24:52.555Z,81.02
2023-03-26T22:29:57.249Z,80.84
2023-03-26T22:35:02.009Z,81.29
2023-03-26T22:40:14.114Z,81.43
2023-03-26T22:45:18.261Z,81.42
2023-03-26T22:50:22.309Z,81.68
2023-03-26T22:55:30.925Z,82.17
2023-03-26T23:00:36.440Z,80.94
2023-03-26T23:05:45.746Z,81.78
2023-03-26T23:10:54.134Z,81.71
2023-03-26T23:15:58.937Z,82.57
2023-03-26T23:21:03.330Z,82.98
2023-03-26T23:26:10.114Z,83.49
2023-03-26T23:31:14.586Z,83.43
2023-03-26T23:36:23.948Z,83.12
2023-03-26T23:41:31.663Z,83.11
2023-03-26T23:46:38.337Z,83.16
2023-03-26T23:51:44.228Z,82.93
2023-03-26T23:56:51.885Z,82.84
